Time;durP1;ratioP1;P1;durP2;ratioP2;P2;SDS_P1;SDS_P2;PMS_P1;PMS_P2;Temp;Humidity;BMP_temperature;BMP_pressure;BME280_temperature;BME280_humidity;BME280_pressure;Samples;Min_cycle;Max_cycle;Signal;HPM_P1;HPM_P2
2023/05/23 00:01:15;;;;;;;13.10;12.02;;;17.50;99.90;;;;;;5073662;28;20028;-69
2023/05/23 00:03:42;;;;;;;13.88;12.70;;;17.60;99.90;;;;;;5073296;28;20395;-70
2023/05/23 00:06:07;;;;;;;13.32;12.02;;;17.60;99.90;;;;;;5073610;28;20032;-70
2023/05/23 00:08:33;;;;;;;13.70;12.60;;;17.60;99.90;;;;;;5073458;28;20027;-69
2023/05/23 00:10:59;;;;;;;14.38;13.18;;;17.50;99.90;;;;;;5073256;28;20037;-68
2023/05/23 00:13:25;;;;;;;14.70;13.23;;;17.50;99.90;;;;;;5072999;28;20531;-70
2023/05/23 00:15:51;;;;;;;14.20;12.98;;;17.50;99.90;;;;;;5072982;28;20028;-70
2023/05/23 00:18:17;;;;;;;14.55;13.18;;;17.60;99.90;;;;;;5073493;28;20446;-69
2023/05/23 00:20:45;;;;;;;14.68;13.18;;;17.50;99.90;;;;;;5073251;28;20375;-70
2023/05/23 00:23:17;;;;;;;16.00;14.50;;;17.60;99.90;;;;;;5073132;28;20080;-69
2023/05/23 00:25:47;;;;;;;15.23;13.98;;;17.50;99.90;;;;;;5072990;28;20020;-70
2023/05/23 00:28:13;;;;;;;16.10;14.40;;;17.50;99.90;;;;;;5072649;28;20506;-70
2023/05/23 00:30:39;;;;;;;15.20;13.93;;;17.40;99.90;;;;;;5072990;28;20032;-69
2023/05/23 00:33:05;;;;;;;15.93;14.43;;;17.50;99.90;;;;;;5072777;28;20398;-70
2023/05/23 00:35:30;;;;;;;15.27;13.98;;;17.40;99.90;;;;;;5073196;28;20059;-70
2023/05/23 00:37:56;;;;;;;15.43;13.85;;;17.50;99.90;;;;;;5073006;28;20029;-69
2023/05/23 00:40:22;;;;;;;14.85;13.38;;;17.50;99.90;;;;;;5072667;28;20036;-70
2023/05/23 00:42:48;;;;;;;14.63;13.30;;;17.50;99.90;;;;;;5083380;28;20031;-70
2023/05/23 00:45:14;;;;;;;16.33;14.80;;;17.50;99.90;;;;;;5092813;28;20039;-69
2023/05/23 00:47:41;;;;;;;18.30;16.40;;;17.60;99.90;;;;;;5093042;28;20026;-70
2023/05/23 00:50:08;;;;;;;14.98;13.68;;;17.50;99.90;;;;;;5092660;28;20050;-70
2023/05/23 00:52:34;;;;;;;15.77;14.18;;;17.50;99.90;;;;;;5092864;28;20496;-70
2023/05/23 00:55:00;;;;;;;18.00;16.40;;;17.50;99.90;;;;;;5092827;28;20028;-70
2023/05/23 00:57:27;;;;;;;17.42;15.70;;;17.50;99.90;;;;;;5092582;28;20065;-71
2023/05/23 00:59:52;;;;;;;17.42;15.60;;;17.50;99.90;;;;;;5091809;28;20028;-70
2023/05/23 01:02:20;;;;;;;17.77;15.93;;;17.60;99.90;;;;;;5092680;28;20386;-70
2023/05/23 01:04:53;;;;;;;18.23;16.35;;;17.60;99.90;;;;;;5092518;28;20119;-70
2023/05/23 01:07:19;;;;;;;18.52;16.83;;;17.50;99.90;;;;;;5092429;28;20063;-70
2023/05/23 01:09:45;;;;;;;18.08;16.38;;;17.50;99.90;;;;;;5091946;28;20453;-70
2023/05/23 01:12:52;;;;;;;18.08;16.30;;;17.50;99.90;;;;;;5092824;28;20024;-70
2023/05/23 01:15:20;;;;;;;17.45;15.77;;;17.50;99.90;;;;;;5092747;28;20024;-70
2023/05/23 01:18:22;;;;;;;17.52;15.93;;;17.50;99.90;;;;;;5092242;28;20073;-70
2023/05/23 01:20:52;;;;;;;18.58;16.63;;;17.50;99.90;;;;;;5092275;28;20513;-70
2023/05/23 01:23:48;;;;;;;18.90;17.13;;;17.40;99.90;;;;;;5092210;28;20107;-70
2023/05/23 01:26:29;;;;;;;18.65;16.85;;;17.40;99.90;;;;;;5091892;28;20032;-70
2023/05/23 01:29:16;;;;;;;19.42;17.63;;;17.40;99.90;;;;;;5092125;28;20039;-70
2023/05/23 01:31:44;;;;;;;19.67;17.65;;;17.40;99.90;;;;;;5066644;28;20040;-70
2023/05/23 01:34:12;;;;;;;18.35;16.55;;;17.40;99.90;;;;;;5071740;28;20095;-69
2023/05/23 01:36:42;;;;;;;21.30;19.10;;;17.40;99.90;;;;;;5071598;28;20025;-69
2023/05/23 01:39:09;;;;;;;20.50;18.42;;;17.40;99.90;;;;;;5071280;28;20085;-70
2023/05/23 01:41:35;;;;;;;20.45;18.33;;;17.40;99.90;;;;;;5071558;28;20027;-70
2023/05/23 01:44:01;;;;;;;20.17;18.27;;;17.40;99.90;;;;;;5071689;28;20033;-70
2023/05/23 01:46:28;;;;;;;20.65;18.60;;;17.40;99.90;;;;;;5071970;28;20028;-70
2023/05/23 01:48:55;;;;;;;20.85;18.85;;;17.40;99.90;;;;;;5071349;28;20031;-70
2023/05/23 01:51:22;;;;;;;22.05;19.95;;;17.30;99.90;;;;;;5070181;28;20036;-68
2023/05/23 01:53:51;;;;;;;21.33;19.17;;;17.30;99.90;;;;;;5071019;28;20391;-70
2023/05/23 01:56:18;;;;;;;19.80;17.80;;;17.30;99.90;;;;;;5071875;28;20016;-70
2023/05/23 01:58:44;;;;;;;20.42;18.33;;;17.40;99.90;;;;;;5071330;28;20031;-70
2023/05/23 02:01:10;;;;;;;19.75;17.70;;;17.30;99.90;;;;;;5071264;28;20029;-70
2023/05/23 02:03:36;;;;;;;18.30;16.45;;;17.40;99.90;;;;;;5071297;28;20103;-70
2023/05/23 02:06:01;;;;;;;17.85;16.10;;;17.40;99.90;;;;;;5071267;28;20032;-70
2023/05/23 02:08:27;;;;;;;20.02;18.05;;;17.50;99.90;;;;;;5071031;28;20028;-70
2023/05/23 02:10:53;;;;;;;19.52;17.73;;;17.40;99.90;;;;;;5071268;28;20531;-70
2023/05/23 02:13:18;;;;;;;19.10;17.25;;;17.40;99.90;;;;;;5071293;28;20487;-70
2023/05/23 02:15:44;;;;;;;20.15;17.83;;;17.40;99.90;;;;;;5069790;28;20804;-70
2023/05/23 02:18:10;;;;;;;17.65;16.00;;;17.40;99.90;;;;;;5071591;28;20020;-70
2023/05/23 02:20:35;;;;;;;19.02;16.90;;;17.40;99.90;;;;;;5071099;28;20025;-70
2023/05/23 02:23:01;;;;;;;19.17;17.27;;;17.50;99.90;;;;;;5069450;28;20043;-69
2023/05/23 02:25:27;;;;;;;19.30;17.63;;;17.40;99.90;;;;;;5071046;28;20075;-70
2023/05/23 02:27:52;;;;;;;19.50;17.80;;;17.50;99.90;;;;;;5071092;28;20095;-69
2023/05/23 02:30:18;;;;;;;20.92;18.83;;;17.40;99.90;;;;;;5070786;28;20513;-70
2023/05/23 02:32:44;;;;;;;20.00;18.10;;;17.40;99.90;;;;;;5071254;28;20108;-70
2023/05/23 02:35:11;;;;;;;19.30;17.33;;;17.30;99.90;;;;;;5070676;28;20565;-70
2023/05/23 02:37:37;;;;;;;20.63;18.70;;;17.30;99.90;;;;;;5070456;28;20402;-69
2023/05/23 02:40:06;;;;;;;21.58;19.38;;;17.30;99.90;;;;;;5071025;28;20103;-69
2023/05/23 02:42:32;;;;;;;22.55;20.45;;;17.30;99.90;;;;;;5070933;28;20042;-70
2023/05/23 02:44:57;;;;;;;20.98;19.13;;;17.30;99.90;;;;;;5070825;28;20037;-69
2023/05/23 02:47:23;;;;;;;22.25;20.15;;;17.30;99.90;;;;;;5070926;28;20032;-70
2023/05/23 02:49:49;;;;;;;23.85;21.65;;;17.20;99.90;;;;;;5070904;28;20036;-70
2023/05/23 02:52:15;;;;;;;21.83;19.73;;;17.20;99.90;;;;;;5070519;28;20024;-70
2023/05/23 02:54:41;;;;;;;22.25;20.35;;;17.20;99.90;;;;;;5070740;28;20089;-70
2023/05/23 02:57:07;;;;;;;22.67;20.58;;;17.20;99.90;;;;;;5071086;28;20510;-69
2023/05/23 02:59:33;;;;;;;22.92;21.02;;;17.20;99.90;;;;;;5070886;28;20043;-70
2023/05/23 03:01:59;;;;;;;21.95;19.92;;;17.20;99.90;;;;;;5070910;28;20043;-68
2023/05/23 03:04:24;;;;;;;22.05;20.13;;;17.20;99.90;;;;;;5070572;28;20399;-70
2023/05/23 03:06:53;;;;;;;22.15;20.08;;;17.20;99.90;;;;;;5070645;28;20103;-69
2023/05/23 03:09:19;;;;;;;23.40;21.40;;;17.20;99.90;;;;;;5070557;28;20495;-69
2023/05/23 03:11:45;;;;;;;21.10;19.35;;;17.20;99.90;;;;;;5070793;28;20513;-70
2023/05/23 03:14:11;;;;;;;20.48;18.67;;;17.10;99.90;;;;;;5070712;28;20099;-70
2023/05/23 03:16:37;;;;;;;21.27;19.27;;;17.10;99.90;;;;;;5070751;28;20036;-70
2023/05/23 03:19:03;;;;;;;19.75;17.95;;;17.10;99.90;;;;;;5070773;28;20032;-70
2023/05/23 03:21:30;;;;;;;18.67;16.98;;;17.10;99.90;;;;;;5070329;28;20024;-69
2023/05/23 03:23:56;;;;;;;18.83;17.13;;;17.10;99.90;;;;;;5073056;28;20036;-70
2023/05/23 03:26:22;;;;;;;18.40;16.70;;;17.10;99.90;;;;;;5074380;28;20546;-70
2023/05/23 03:28:50;;;;;;;20.20;18.33;;;17.10;99.90;;;;;;5073866;28;20024;-69
2023/05/23 03:31:16;;;;;;;18.38;16.88;;;17.10;99.90;;;;;;5088185;28;20064;-70
2023/05/23 03:33:41;;;;;;;17.80;16.25;;;17.10;99.90;;;;;;5094234;28;20020;-70
2023/05/23 03:36:07;;;;;;;18.83;17.05;;;17.10;99.90;;;;;;5093887;28;20089;-69
2023/05/23 03:38:33;;;;;;;16.73;15.32;;;17.00;99.90;;;;;;5094491;28;20107;-69
2023/05/23 03:40:58;;;;;;;18.20;16.75;;;17.00;99.90;;;;;;5094115;28;20420;-70
2023/05/23 03:43:24;;;;;;;17.42;15.98;;;17.00;99.90;;;;;;5094181;28;20028;-70
2023/05/23 03:45:50;;;;;;;17.23;15.63;;;17.10;99.90;;;;;;5094371;28;20066;-70
2023/05/23 03:48:16;;;;;;;16.17;14.77;;;17.10;99.90;;;;;;5094065;28;20036;-69
2023/05/23 03:50:41;;;;;;;16.73;15.13;;;17.10;99.90;;;;;;5093755;28;20040;-70
2023/05/23 03:53:07;;;;;;;16.90;15.32;;;17.10;99.90;;;;;;5093787;28;20120;-70
2023/05/23 03:55:33;;;;;;;15.98;14.48;;;17.00;99.90;;;;;;5093897;28;20040;-69
2023/05/23 03:57:59;;;;;;;16.02;14.63;;;17.00;99.90;;;;;;5093789;28;20024;-70
2023/05/23 04:00:25;;;;;;;15.80;14.40;;;17.00;99.90;;;;;;5094211;28;20406;-70
2023/05/23 04:02:51;;;;;;;16.00;14.57;;;16.90;99.90;;;;;;5093745;28;20021;-69
2023/05/23 04:05:17;;;;;;;17.92;16.13;;;16.90;99.90;;;;;;5093520;28;20436;-70
2023/05/23 04:07:43;;;;;;;18.17;16.50;;;16.80;99.90;;;;;;5093377;28;20020;-70
2023/05/23 04:10:09;;;;;;;17.65;15.95;;;16.70;99.90;;;;;;5093744;28;20032;-70
2023/05/23 04:12:35;;;;;;;17.27;15.52;;;16.70;99.90;;;;;;5093993;28;20020;-70
2023/05/23 04:15:02;;;;;;;16.73;15.25;;;16.70;99.90;;;;;;5094005;28;20039;-70
2023/05/23 04:17:30;;;;;;;16.08;14.70;;;16.70;99.90;;;;;;5093526;28;20024;-70
2023/05/23 04:19:56;;;;;;;17.63;16.02;;;16.70;99.90;;;;;;5093133;28;20028;-70
2023/05/23 04:22:22;;;;;;;17.48;15.98;;;16.70;99.90;;;;;;5093465;28;20024;-69
2023/05/23 04:24:47;;;;;;;16.42;14.93;;;16.70;99.90;;;;;;5093323;28;20031;-68
2023/05/23 04:27:13;;;;;;;15.32;13.93;;;16.70;99.90;;;;;;5093251;28;20436;-70
2023/05/23 04:29:39;;;;;;;15.82;14.38;;;16.70;99.90;;;;;;5092789;28;20062;-69
2023/05/23 04:32:05;;;;;;;14.20;12.93;;;16.70;99.90;;;;;;5073171;28;20044;-70
2023/05/23 04:34:34;;;;;;;16.55;14.95;;;16.80;99.90;;;;;;5072345;28;20033;-70
2023/05/23 04:37:04;;;;;;;15.93;14.40;;;16.70;99.90;;;;;;5073214;28;20123;-69
2023/05/23 04:39:29;;;;;;;16.48;14.90;;;16.60;99.90;;;;;;5072882;28;20028;-70
2023/05/23 04:41:56;;;;;;;15.05;13.73;;;16.60;99.90;;;;;;5072816;28;20025;-69
2023/05/23 04:44:22;;;;;;;15.07;13.57;;;16.60;99.90;;;;;;5072597;28;20028;-70
2023/05/23 04:46:49;;;;;;;15.88;14.35;;;16.50;99.90;;;;;;5073024;28;20147;-69
2023/05/23 04:49:15;;;;;;;16.92;15.32;;;16.40;99.90;;;;;;5072331;28;20031;-69
2023/05/23 04:51:41;;;;;;;16.38;14.82;;;16.50;99.90;;;;;;5072542;28;20032;-68
2023/05/23 04:54:07;;;;;;;18.08;16.38;;;16.50;99.90;;;;;;5072801;28;20408;-69
2023/05/23 04:56:33;;;;;;;18.42;16.58;;;16.40;99.90;;;;;;5072453;28;20028;-67
2023/05/23 04:58:58;;;;;;;16.73;15.20;;;16.40;99.90;;;;;;5073355;28;20405;-70
2023/05/23 05:01:27;;;;;;;15.57;14.18;;;16.40;99.90;;;;;;5072911;28;20029;-69
2023/05/23 05:03:52;;;;;;;16.63;14.20;;;16.40;99.90;;;;;;5072770;28;20028;-69
2023/05/23 05:06:20;;;;;;;14.82;13.52;;;16.50;99.90;;;;;;5071843;28;20035;-69
2023/05/23 05:08:46;;;;;;;15.07;13.77;;;16.50;99.90;;;;;;5072374;28;20066;-69
2023/05/23 05:11:11;;;;;;;14.80;13.50;;;16.50;99.90;;;;;;5071524;28;20029;-70
2023/05/23 05:13:37;;;;;;;15.57;14.05;;;16.50;99.90;;;;;;5070762;28;20086;-69
2023/05/23 05:16:03;;;;;;;15.20;13.63;;;16.50;99.90;;;;;;5072293;28;20051;-69
2023/05/23 05:18:29;;;;;;;15.57;13.23;;;16.50;99.90;;;;;;5071658;28;20487;-69
2023/05/23 05:20:56;;;;;;;14.77;13.40;;;16.60;99.90;;;;;;5072187;28;20498;-69
2023/05/23 05:23:29;;;;;;;13.63;12.25;;;16.60;99.90;;;;;;5072060;28;20063;-68
2023/05/23 05:25:55;;;;;;;13.25;11.85;;;16.60;99.90;;;;;;5071883;28;20387;-69
2023/05/23 05:28:21;;;;;;;14.50;12.93;;;16.60;99.90;;;;;;5071655;28;20040;-68
2023/05/23 05:30:47;;;;;;;13.43;12.02;;;16.60;99.90;;;;;;5081026;28;20044;-68
2023/05/23 05:33:13;;;;;;;16.90;14.27;;;16.60;99.90;;;;;;5091827;28;20505;-68
2023/05/23 05:35:39;;;;;;;14.20;12.80;;;16.60;99.90;;;;;;5091852;28;20514;-69
2023/05/23 05:38:04;;;;;;;15.60;12.95;;;16.60;99.90;;;;;;5092345;28;20032;-69
2023/05/23 05:40:33;;;;;;;14.20;12.80;;;16.60;99.90;;;;;;5091787;28;20097;-68
2023/05/23 05:43:00;;;;;;;15.23;13.75;;;16.60;99.90;;;;;;5091519;28;20052;-70
2023/05/23 05:45:26;;;;;;;14.48;13.10;;;16.60;99.90;;;;;;5090888;28;20051;-69
2023/05/23 05:47:52;;;;;;;14.43;12.93;;;16.60;99.90;;;;;;5091746;28;20422;-69
2023/05/23 05:50:19;;;;;;;14.88;12.43;;;16.60;99.90;;;;;;5091203;28;20031;-70
2023/05/23 05:52:45;;;;;;;14.93;13.43;;;16.60;99.90;;;;;;5091183;28;20024;-71
2023/05/23 05:55:11;;;;;;;14.35;13.05;;;16.60;99.90;;;;;;5090102;28;20028;-69
2023/05/23 05:57:37;;;;;;;14.27;12.77;;;16.60;99.90;;;;;;5091214;28;20043;-69
2023/05/23 06:00:11;;;;;;;15.77;13.10;;;16.50;99.90;;;;;;5088196;28;20103;-70
2023/05/23 06:02:37;;;;;;;;;;;16.50;99.90;;;;;;5090998;28;20038;-70
2023/05/23 06:05:05;;;;;;;14.55;13.05;;;16.50;99.90;;;;;;5091026;28;19943;-70
2023/05/23 06:07:30;;;;;;;13.77;12.38;;;16.40;99.90;;;;;;5091087;28;20062;-69
2023/05/23 06:09:56;;;;;;;14.40;12.95;;;16.40;99.90;;;;;;5091295;28;20474;-70
2023/05/23 06:12:22;;;;;;;14.32;12.90;;;16.40;99.90;;;;;;5090870;28;20020;-70
2023/05/23 06:14:48;;;;;;;14.35;13.05;;;16.40;99.90;;;;;;5090539;28;20027;-70
2023/05/23 06:17:13;;;;;;;14.50;13.20;;;16.40;99.90;;;;;;5091085;28;20474;-69
2023/05/23 06:19:39;;;;;;;17.70;14.05;;;16.40;99.90;;;;;;5089663;28;20032;-68
2023/05/23 06:22:05;;;;;;;15.68;14.13;;;16.40;99.90;;;;;;5090797;28;20056;-72
2023/05/23 06:24:30;;;;;;;17.17;13.85;;;16.40;99.90;;;;;;5090630;28;20020;-71
2023/05/23 06:26:56;;;;;;;15.88;14.25;;;16.40;99.90;;;;;;5065764;28;20024;-72
2023/05/23 06:29:21;;;;;;;14.25;12.80;;;16.40;99.90;;;;;;5090437;28;20032;-71
2023/05/23 06:31:47;;;;;;;15.68;14.07;;;16.50;99.90;;;;;;5072591;28;20032;-70
2023/05/23 06:34:13;;;;;;;17.00;15.32;;;16.50;99.90;;;;;;5070939;28;20099;-69
2023/05/23 06:36:38;;;;;;;15.57;14.15;;;16.50;99.90;;;;;;5068916;28;20041;-70
2023/05/23 06:39:04;;;;;;;16.05;14.38;;;16.60;99.90;;;;;;5069978;28;20107;-69
2023/05/23 06:41:30;;;;;;;16.30;14.52;;;16.60;99.90;;;;;;5070057;28;20475;-70
2023/05/23 06:43:55;;;;;;;18.55;16.83;;;16.70;99.90;;;;;;5070475;28;20087;-69
2023/05/23 06:46:21;;;;;;;19.38;14.48;;;16.80;99.90;;;;;;5070778;28;20024;-68
2023/05/23 06:48:47;;;;;;;22.15;13.85;;;16.80;99.90;;;;;;5070589;28;20086;-70
2023/05/23 06:51:12;;;;;;;16.30;14.00;;;16.90;99.90;;;;;;5070770;28;20041;-71
2023/05/23 06:53:38;;;;;;;16.00;13.57;;;17.00;99.90;;;;;;5070751;28;20048;-72
2023/05/23 06:56:04;;;;;;;14.68;12.98;;;17.10;99.90;;;;;;5070927;28;20021;-72
2023/05/23 06:58:30;;;;;;;38.00;16.83;;;17.20;99.90;;;;;;5072516;28;20478;-68
2023/05/23 07:00:55;;;;;;;17.85;14.00;;;17.20;99.90;;;;;;5074626;28;20069;-69
2023/05/23 07:03:21;;;;;;;17.70;13.90;;;17.30;99.90;;;;;;5075037;28;20028;-68
2023/05/23 07:05:47;;;;;;;13.70;12.50;;;17.40;99.90;;;;;;5074629;28;20364;-68
2023/05/23 07:08:12;;;;;;;15.70;13.15;;;17.50;99.90;;;;;;5074802;28;20101;-69
2023/05/23 07:10:40;;;;;;;14.48;13.15;;;17.50;99.90;;;;;;5074689;28;20470;-69
2023/05/23 07:13:06;;;;;;;16.95;12.68;;;17.60;99.90;;;;;;5074101;28;20036;-69
2023/05/23 07:15:31;;;;;;;14.93;13.27;;;17.70;99.90;;;;;;5074420;28;20175;-70
2023/05/23 07:17:57;;;;;;;27.92;15.57;;;17.80;99.90;;;;;;5074501;28;20434;-73
2023/05/23 07:20:22;;;;;;;26.35;14.40;;;17.80;99.90;;;;;;5074206;28;20025;-72
2023/05/23 07:22:50;;;;;;;13.88;12.32;;;17.80;99.90;;;;;;5074282;28;20024;-72
2023/05/23 07:25:16;;;;;;;49.67;22.42;;;17.90;99.90;;;;;;5074333;28;20021;-68
2023/05/23 07:27:41;;;;;;;26.48;17.48;;;17.90;99.90;;;;;;5073765;28;20035;-68
2023/05/23 07:30:11;;;;;;;27.48;15.15;;;18.00;99.90;;;;;;5073937;28;20410;-68
2023/05/23 07:32:37;;;;;;;19.50;12.77;;;18.00;99.90;;;;;;5074454;28;20032;-69
2023/05/23 07:35:02;;;;;;;19.60;12.10;;;18.10;99.90;;;;;;5073963;28;20110;-69
2023/05/23 07:37:28;;;;;;;47.42;16.15;;;18.10;99.90;;;;;;5074006;28;20537;-71
2023/05/23 07:39:54;;;;;;;87.68;21.20;;;18.20;99.90;;;;;;5073733;28;20437;-72
2023/05/23 07:42:20;;;;;;;16.90;13.35;;;18.20;99.90;;;;;;5073564;28;20020;-72
2023/05/23 07:44:45;;;;;;;62.85;18.58;;;18.20;99.90;;;;;;5074200;28;20480;-73
2023/05/23 07:47:11;;;;;;;24.55;12.82;;;18.20;99.90;;;;;;5073828;28;20029;-73
2023/05/23 07:49:36;;;;;;;35.13;16.38;;;18.20;99.90;;;;;;5073592;28;20031;-70
2023/05/23 07:52:02;;;;;;;23.50;14.02;;;18.30;99.90;;;;;;5072249;28;20047;-72
2023/05/23 07:54:28;;;;;;;17.02;13.00;;;18.30;99.90;;;;;;5073900;28;20039;-71
2023/05/23 07:56:54;;;;;;;15.23;12.07;;;18.40;99.90;;;;;;5073332;28;20420;-72
2023/05/23 07:59:21;;;;;;;14.77;12.20;;;18.40;99.90;;;;;;5073698;28;20391;-71
2023/05/23 08:01:49;;;;;;;28.52;12.98;;;18.50;99.90;;;;;;5073480;28;20039;-71
2023/05/23 08:04:16;;;;;;;15.90;11.48;;;18.60;99.90;;;;;;5073861;28;20104;-75
2023/05/23 08:06:41;;;;;;;18.13;11.60;;;18.70;99.90;;;;;;5073660;28;20039;-68
2023/05/23 08:09:07;;;;;;;16.70;11.45;;;18.70;99.90;;;;;;5072778;28;20025;-71
2023/05/23 08:11:33;;;;;;;18.05;11.00;;;18.80;99.90;;;;;;5073139;28;20395;-71
2023/05/23 08:13:59;;;;;;;49.67;14.75;;;18.80;99.90;;;;;;5073800;28;20414;-70
2023/05/23 08:16:26;;;;;;;30.20;14.70;;;18.90;99.90;;;;;;5073207;28;20031;-69
2023/05/23 08:18:52;;;;;;;22.52;12.88;;;18.80;99.90;;;;;;5073344;28;20028;-68
2023/05/23 08:21:17;;;;;;;17.45;12.05;;;18.90;99.90;;;;;;5073168;28;20533;-69
2023/05/23 08:23:43;;;;;;;29.25;12.32;;;19.00;99.90;;;;;;5072893;28;20086;-70
2023/05/23 08:26:09;;;;;;;25.65;13.98;;;19.00;99.90;;;;;;5072864;28;20020;-69
2023/05/23 08:28:35;;;;;;;31.55;14.27;;;19.10;99.90;;;;;;5073093;28;20021;-70
2023/05/23 08:31:00;;;;;;;23.33;14.45;;;19.20;99.90;;;;;;5072788;28;20036;-70
2023/05/23 08:33:26;;;;;;;45.83;17.63;;;19.30;99.90;;;;;;5073124;28;20451;-70
2023/05/23 08:35:51;;;;;;;47.25;19.73;;;19.40;99.90;;;;;;5072633;28;20071;-70
2023/05/23 08:38:20;;;;;;;24.98;18.95;;;19.50;99.90;;;;;;5073114;28;20024;-70
2023/05/23 08:40:51;;;;;;;29.13;18.25;;;19.60;99.90;;;;;;5072497;28;20089;-69
2023/05/23 08:43:18;;;;;;;29.52;18.17;;;19.60;99.90;;;;;;5072739;28;20525;-70
2023/05/23 08:45:45;;;;;;;26.02;18.80;;;19.70;99.90;;;;;;5072755;28;20032;-69
2023/05/23 08:48:14;;;;;;;48.20;24.75;;;19.70;99.90;;;;;;5072664;28;20037;-70
2023/05/23 08:50:45;;;;;;;41.47;24.85;;;19.80;99.90;;;;;;5072618;28;20402;-69
2023/05/23 08:53:19;;;;;;;23.77;19.15;;;19.90;99.90;;;;;;5072647;28;20020;-68
2023/05/23 08:55:50;;;;;;;19.48;17.30;;;20.00;99.90;;;;;;5072558;28;20039;-70
2023/05/23 08:58:21;;;;;;;19.05;16.67;;;20.10;99.90;;;;;;5072494;28;20040;-69
2023/05/23 09:00:48;;;;;;;1395.68;163.93;;;20.10;99.90;;;;;;5072355;28;20033;-69
2023/05/23 09:03:14;;;;;;;766.08;93.30;;;20.10;99.90;;;;;;5072618;28;20021;-69
2023/05/23 09:05:41;;;;;;;693.33;80.05;;;20.10;99.90;;;;;;5072139;28;20025;-63
2023/05/23 09:08:07;;;;;;;188.07;31.77;;;20.20;99.90;;;;;;5071703;28;20425;-63
2023/05/23 09:10:33;;;;;;;76.25;22.58;;;20.20;99.90;;;;;;5070822;28;20044;-64
2023/05/23 09:12:58;;;;;;;48.25;16.90;;;20.20;99.90;;;;;;5072220;28;20483;-63
2023/05/23 09:15:26;;;;;;;24.50;13.80;;;20.30;99.90;;;;;;5072659;28;20042;-63
2023/05/23 09:17:51;;;;;;;23.90;13.52;;;20.30;99.90;;;;;;5072098;28;20498;-63
2023/05/23 09:20:17;;;;;;;17.48;12.95;;;20.40;99.90;;;;;;5070989;28;20029;-63
2023/05/23 09:22:47;;;;;;;24.63;13.32;;;20.30;99.90;;;;;;5071741;28;20027;-63
2023/05/23 09:25:13;;;;;;;15.00;13.27;;;20.40;99.90;;;;;;5071940;28;20024;-64
2023/05/23 09:27:40;;;;;;;14.82;13.23;;;20.30;99.90;;;;;;5071766;28;20493;-64
2023/05/23 09:30:10;;;;;;;14.43;12.27;;;20.40;99.90;;;;;;5071531;28;20130;-64
2023/05/23 09:32:36;;;;;;;14.52;13.13;;;20.30;99.90;;;;;;5071712;28;20031;-65
2023/05/23 09:35:06;;;;;;;13.48;12.15;;;20.20;99.90;;;;;;5071535;28;20044;-64
2023/05/23 09:37:38;;;;;;;13.63;12.32;;;20.20;99.90;;;;;;5071795;28;20063;-65
2023/05/23 09:40:14;;;;;;;14.77;12.63;;;20.20;99.90;;;;;;5071890;28;20032;-65
2023/05/23 09:42:44;;;;;;;12.57;11.38;;;20.10;99.90;;;;;;5071634;28;20032;-64
2023/05/23 09:45:15;;;;;;;13.65;12.18;;;20.10;99.90;;;;;;5071282;28;20021;-64
2023/05/23 09:47:53;;;;;;;15.77;11.55;;;20.20;99.90;;;;;;5071654;28;20090;-65
2023/05/23 09:50:19;;;;;;;12.32;11.18;;;20.30;99.90;;;;;;5071349;28;20583;-65
2023/05/23 09:52:45;;;;;;;12.30;11.20;;;20.30;99.90;;;;;;5071430;28;20021;-64
2023/05/23 09:55:11;;;;;;;12.82;11.43;;;20.30;99.90;;;;;;5071690;28;20394;-64
2023/05/23 09:57:41;;;;;;;13.32;12.02;;;20.50;99.90;;;;;;5071432;28;20047;-64
2023/05/23 10:00:12;;;;;;;12.52;11.30;;;20.50;99.90;;;;;;5071279;28;20044;-64
2023/05/23 10:02:49;;;;;;;16.95;11.95;;;20.60;99.90;;;;;;5071357;28;20035;-64
2023/05/23 10:05:35;;;;;;;14.35;11.65;;;20.80;99.90;;;;;;5071226;28;20028;-63
2023/05/23 10:08:06;;;;;;;13.05;11.55;;;20.70;99.90;;;;;;5071060;28;20146;-64
2023/05/23 10:10:32;;;;;;;12.40;11.05;;;20.80;99.90;;;;;;5071363;28;20044;-64
2023/05/23 10:13:03;;;;;;;12.85;11.55;;;20.80;99.90;;;;;;5071478;28;20449;-64
2023/05/23 10:15:34;;;;;;;12.32;11.13;;;20.80;99.90;;;;;;5071266;28;20074;-64
2023/05/23 10:18:16;;;;;;;11.70;10.52;;;20.90;99.90;;;;;;5077139;28;20032;-64
2023/05/23 10:20:47;;;;;;;11.57;10.27;;;21.00;99.90;;;;;;5090450;28;20440;-63
2023/05/23 10:23:14;;;;;;;11.18;9.98;;;21.00;99.90;;;;;;5091183;28;20058;-65
2023/05/23 10:25:42;;;;;;;11.50;10.30;;;21.00;99.90;;;;;;5090501;28;20027;-63
2023/05/23 10:28:08;;;;;;;11.27;10.07;;;21.10;99.90;;;;;;5090884;28;20495;-64
2023/05/23 10:30:34;;;;;;;12.43;10.98;;;21.20;99.90;;;;;;5082915;28;20103;-64
2023/05/23 10:33:01;;;;;;;13.25;11.43;;;21.20;99.90;;;;;;5076282;28;20116;-64
2023/05/23 10:36:17;;;;;;;13.55;12.25;;;21.20;99.90;;;;;;5075886;28;20052;-64
2023/05/23 10:39:05;;;;;;;11.98;10.80;;;21.30;99.90;;;;;;5055248;28;20495;-63
2023/05/23 10:41:40;;;;;;;12.70;11.40;;;21.40;99.90;;;;;;5055148;28;20057;-64
2023/05/23 10:44:20;;;;;;;13.23;11.10;;;21.40;99.90;;;;;;5055225;28;20040;-64
2023/05/23 10:46:52;;;;;;;11.82;10.63;;;21.40;99.90;;;;;;5055222;28;20107;-64
2023/05/23 10:49:19;;;;;;;12.23;10.52;;;21.60;99.90;;;;;;5055170;28;20040;-63
2023/05/23 10:51:53;;;;;;;11.27;10.15;;;21.60;99.90;;;;;;5054846;28;20403;-64
2023/05/23 10:54:19;;;;;;;12.85;11.27;;;21.70;99.90;;;;;;5055027;28;20041;-64
2023/05/23 10:56:45;;;;;;;12.07;10.75;;;21.80;99.90;;;;;;5055108;28;20028;-62
2023/05/23 10:59:21;;;;;;;13.27;10.45;;;21.90;99.90;;;;;;5055069;28;20033;-63
2023/05/23 11:01:50;;;;;;;12.43;10.50;;;21.90;99.90;;;;;;5054694;28;20036;-63
2023/05/23 11:04:25;;;;;;;12.73;10.13;;;22.10;99.90;;;;;;5054761;28;20620;-64
2023/05/23 11:06:53;;;;;;;10.93;9.98;;;22.10;99.90;;;;;;5054686;28;20032;-63
2023/05/23 11:09:20;;;;;;;12.50;11.27;;;22.20;99.90;;;;;;5054613;28;20036;-64
2023/05/23 11:12:06;;;;;;;12.80;11.52;;;22.20;99.90;;;;;;5054818;28;20202;-64
2023/05/23 11:14:39;;;;;;;13.50;11.10;;;22.40;99.90;;;;;;5068280;28;20402;-64
2023/05/23 11:17:10;;;;;;;11.77;10.57;;;22.50;99.90;;;;;;5077289;28;20025;-64
2023/05/23 11:19:36;;;;;;;12.10;10.82;;;22.50;99.90;;;;;;5076773;28;20021;-64
2023/05/23 11:22:04;;;;;;;11.98;10.88;;;22.60;99.90;;;;;;5077056;28;20035;-63
2023/05/23 11:24:52;;;;;;;11.63;10.50;;;22.60;99.90;;;;;;5077066;28;20036;-64
2023/05/23 11:27:34;;;;;;;12.40;11.23;;;22.80;99.90;;;;;;5077229;28;20024;-63
2023/05/23 11:30:16;;;;;;;13.05;11.70;;;22.70;99.90;;;;;;5077030;28;20032;-63
2023/05/23 11:32:52;;;;;;;13.23;11.90;;;22.80;99.90;;;;;;5077052;28;20048;-63
2023/05/23 11:35:18;;;;;;;13.07;11.88;;;22.90;99.90;;;;;;5076731;28;20094;-65
2023/05/23 11:37:44;;;;;;;12.60;11.40;;;22.90;99.90;;;;;;5088976;28;20035;-64
2023/05/23 11:40:39;;;;;;;14.30;12.20;;;23.00;99.90;;;;;;5097281;28;20501;-64
2023/05/23 11:43:11;;;;;;;13.18;11.88;;;22.80;99.90;;;;;;5096042;28;20252;-62
2023/05/23 11:45:38;;;;;;;13.93;12.07;;;22.80;99.90;;;;;;5093949;28;20122;-64
2023/05/23 11:48:15;;;;;;;13.25;11.48;;;22.80;99.90;;;;;;5093917;28;20399;-64
2023/05/23 11:50:46;;;;;;;14.23;11.55;;;22.80;99.90;;;;;;5094029;28;20059;-64
2023/05/23 11:53:16;;;;;;;12.60;11.38;;;22.90;99.90;;;;;;5093908;28;20020;-64
2023/05/23 11:55:48;;;;;;;12.73;11.57;;;22.90;99.90;;;;;;5094454;28;20028;-64
2023/05/23 11:58:13;;;;;;;12.93;11.50;;;23.10;99.90;;;;;;5093535;28;20028;-64
2023/05/23 12:00:44;;;;;;;12.80;11.32;;;23.10;99.90;;;;;;5094379;28;20085;-64
2023/05/23 12:03:10;;;;;;;12.57;11.30;;;23.20;99.90;;;;;;5093345;28;20083;-64
2023/05/23 12:05:36;;;;;;;12.90;10.95;;;23.20;99.90;;;;;;5093742;28;20051;-64
2023/05/23 12:08:02;;;;;;;13.35;10.38;;;23.20;99.90;;;;;;5093829;28;20486;-64
2023/05/23 12:10:28;;;;;;;13.00;11.60;;;23.30;99.90;;;;;;5093587;28;20101;-64
2023/05/23 12:12:54;;;;;;;11.70;10.50;;;23.30;99.90;;;;;;5094018;28;20020;-65
2023/05/23 12:15:26;;;;;;;12.05;10.82;;;23.40;99.90;;;;;;5093483;28;20482;-64
2023/05/23 12:17:53;;;;;;;12.98;10.50;;;23.40;99.90;;;;;;5093240;28;20028;-64
2023/05/23 12:20:20;;;;;;;13.38;10.68;;;23.40;99.90;;;;;;5093469;28;20496;-64
2023/05/23 12:22:46;;;;;;;12.32;9.90;;;23.40;99.90;;;;;;5093272;28;20036;-64
2023/05/23 12:25:11;;;;;;;11.55;10.27;;;23.50;99.90;;;;;;5093603;28;20023;-64
2023/05/23 12:27:40;;;;;;;11.63;9.98;;;23.50;99.90;;;;;;5093295;28;20032;-64
2023/05/23 12:30:12;;;;;;;12.98;10.23;;;23.60;99.90;;;;;;5089250;28;20036;-64
2023/05/23 12:32:42;;;;;;;14.18;10.80;;;23.70;99.90;;;;;;5072736;28;20024;-64